Time;durP1;ratioP1;P1;durP2;ratioP2;P2;SDS_P1;SDS_P2;PMS_P1;PMS_P2;Temp;Humidity;BMP_temperature;BMP_pressure;BME280_temperature;BME280_humidity;BME280_pressure;Samples;Min_cycle;Max_cycle;Signal;HPM_P1;HPM_P2
2022/01/01 00:02:09;;;;;;;99.60;59.97;;;12.50;99.90;;;12.80;100.00;102196.13;5112102;28;20404;-71
2022/01/01 00:04:58;;;;;;;98.40;56.05;;;12.50;99.90;;;12.78;100.00;102189.03;5093392;28;20052;-68
2022/01/01 00:07:28;;;;;;;94.80;53.35;;;12.60;99.90;;;12.77;100.00;102173.97;5111920;28;20055;-68
2022/01/01 00:09:57;;;;;;;95.10;51.83;;;12.60;99.90;;;12.95;100.00;102185.63;5093564;28;20055;-69
2022/01/01 00:12:29;;;;;;;93.70;50.70;;;12.60;99.90;;;12.97;100.00;102183.88;5111746;28;20761;-68
2022/01/01 00:14:58;;;;;;;96.32;52.33;;;12.70;99.90;;;13.00;100.00;102183.91;5112250;28;20044;-69
2022/01/01 00:17:26;;;;;;;98.22;52.33;;;12.70;99.90;;;13.12;100.00;102186.69;5112753;28;20062;-69
2022/01/01 00:19:55;;;;;;;96.47;53.50;;;12.80;99.90;;;13.18;100.00;102183.16;5115845;28;20114;-68
2022/01/01 00:22:23;;;;;;;107.05;57.25;;;12.90;99.90;;;13.00;100.00;102154.69;5115910;28;20450;-67
2022/01/01 00:24:54;;;;;;;110.78;58.92;;;13.00;99.90;;;13.34;100.00;102185.91;5097786;28;20127;-70
2022/01/01 00:27:23;;;;;;;111.32;62.08;;;13.00;99.90;;;13.40;100.00;102183.28;5116212;28;20039;-71
2022/01/01 00:29:51;;;;;;;111.97;62.85;;;13.10;99.90;;;13.46;100.00;102185.97;5116410;28;20070;-66
2022/01/01 00:32:19;;;;;;;119.18;61.53;;;13.10;99.90;;;13.42;100.00;102178.88;5097610;28;20051;-66
2022/01/01 00:34:50;;;;;;;100.00;49.17;;;13.20;99.90;;;13.50;100.00;102189.53;5116029;28;20533;-66
2022/01/01 00:37:19;;;;;;;85.40;42.30;;;13.20;99.90;;;13.57;100.00;102188.66;5115728;28;20086;-66
2022/01/01 00:39:48;;;;;;;87.03;41.15;;;13.30;99.90;;;13.64;100.00;102186.94;5115930;28;20136;-68
2022/01/01 00:42:17;;;;;;;89.28;42.78;;;13.30;99.90;;;13.60;100.00;102186.03;5115681;28;20055;-66
2022/01/01 00:44:46;;;;;;;88.07;41.17;;;13.30;99.90;;;13.56;99.77;102171.84;5116050;28;20092;-66
2022/01/01 00:47:15;;;;;;;87.25;40.80;;;13.30;99.90;;;13.48;99.31;102167.38;5115537;28;20047;-73
2022/01/01 00:49:43;;;;;;;100.72;46.05;;;13.30;99.90;;;13.46;98.94;102169.13;5115834;28;20342;-68
2022/01/01 00:52:13;;;;;;;91.40;44.13;;;13.20;99.90;;;13.53;98.76;102193.09;5097601;28;20044;-68
2022/01/01 00:54:42;;;;;;;87.25;40.75;;;13.30;99.90;;;13.46;98.89;102207.25;5115469;28;20465;-69
2022/01/01 00:57:10;;;;;;;73.68;37.30;;;13.20;99.90;;;13.39;99.42;102208.06;5115373;28;20343;-68
2022/01/01 00:59:40;;;;;;;82.28;40.53;;;13.10;99.90;;;13.31;100.00;102204.50;5097517;28;20040;-67
2022/01/01 01:02:08;;;;;;;79.60;37.63;;;13.10;99.90;;;13.31;100.00;102207.16;5115642;28;20072;-68
2022/01/01 01:04:37;;;;;;;80.95;33.58;;;13.10;99.90;;;13.36;100.00;102212.47;5115127;28;20466;-66
2022/01/01 01:07:05;;;;;;;79.85;31.60;;;13.00;99.90;;;13.28;100.00;102211.53;5115741;28;20695;-66
2022/01/01 01:09:34;;;;;;;81.90;32.97;;;13.10;99.90;;;13.31;100.00;102215.13;5115544;28;20047;-67
2022/01/01 01:12:03;;;;;;;68.35;30.08;;;13.10;99.90;;;13.21;100.00;102213.31;5115345;28;20044;-66
2022/01/01 01:14:40;;;;;;;68.97;28.88;;;13.00;99.90;;;13.29;100.00;102206.25;5114934;28;20086;-70
2022/01/01 01:17:10;;;;;;;68.88;25.63;;;13.10;99.90;;;13.32;100.00;102208.03;5096722;28;20047;-68
2022/01/01 01:19:39;;;;;;;59.63;22.48;;;13.00;99.90;;;13.33;100.00;102200.09;5114811;28;20071;-68
2022/01/01 01:22:08;;;;;;;61.60;22.15;;;13.10;99.90;;;13.14;100.00;102181.38;5114831;28;20047;-67
2022/01/01 01:24:37;;;;;;;59.53;21.33;;;13.00;99.90;;;13.25;100.00;102209.78;5114712;28;20170;-67
2022/01/01 01:27:06;;;;;;;59.55;20.38;;;13.00;99.90;;;13.24;100.00;102215.09;5114933;28;20036;-68
2022/01/01 01:29:38;;;;;;;59.70;19.92;;;13.00;99.90;;;13.26;100.00;102210.66;5113641;28;20039;-66
2022/01/01 01:32:07;;;;;;;61.03;20.65;;;13.00;99.90;;;13.32;100.00;102213.34;5114548;28;20078;-68
2022/01/01 01:34:37;;;;;;;55.50;19.48;;;13.00;99.90;;;13.27;100.00;102197.41;5114472;28;20078;-65
2022/01/01 01:37:05;;;;;;;53.35;19.60;;;13.10;99.90;;;13.34;100.00;102198.28;5114588;28;20043;-66
2022/01/01 01:39:34;;;;;;;57.22;20.27;;;13.10;99.90;;;13.37;100.00;102179.72;5114655;28;20042;-69
2022/01/01 01:42:02;;;;;;;57.50;17.48;;;13.10;99.90;;;13.44;100.00;102198.38;5114510;28;20047;-68
2022/01/01 01:44:36;;;;;;;50.25;17.85;;;13.20;99.90;;;13.58;100.00;102207.31;5114520;28;20067;-68
2022/01/01 01:47:14;;;;;;;48.75;16.52;;;13.20;99.90;;;13.62;100.00;102209.97;5114347;28;20039;-68
2022/01/01 01:49:46;;;;;;;51.67;17.10;;;13.30;99.90;;;13.76;100.00;102216.25;5114316;28;20160;-68
2022/01/01 01:52:17;;;;;;;53.50;17.05;;;13.40;99.90;;;13.80;100.00;102205.59;5114288;28;20059;-68
2022/01/01 01:54:45;;;;;;;;;;;13.50;99.90;;;13.86;100.00;102196.78;5114602;28;20062;-68
2022/01/01 01:57:14;;;;;;;49.25;15.80;;;13.50;99.90;;;13.89;100.00;102196.78;5114071;28;19959;-68
2022/01/01 01:59:43;;;;;;;50.88;17.02;;;13.60;99.90;;;13.98;100.00;102195.03;5095745;28;20134;-68
2022/01/01 02:02:11;;;;;;;51.22;18.05;;;13.60;99.90;;;14.01;100.00;102196.81;5114301;28;20043;-67
2022/01/01 02:04:40;;;;;;;49.95;16.42;;;13.70;99.90;;;14.01;100.00;102188.84;5113985;28;20075;-67
2022/01/01 02:07:11;;;;;;;45.33;16.38;;;13.70;99.90;;;14.07;100.00;102197.72;5095452;28;20077;-68
2022/01/01 02:09:40;;;;;;;44.90;17.67;;;13.80;99.90;;;14.05;100.00;102193.28;5095525;28;20117;-67
2022/01/01 02:12:10;;;;;;;47.65;17.58;;;13.70;99.90;;;13.53;100.00;102078.78;5114031;28;20040;-68
2022/01/01 02:15:06;;;;;;;52.13;20.05;;;13.80;99.90;;;14.07;100.00;102186.19;5113765;28;20048;-67
2022/01/01 02:17:35;;;;;;;50.05;22.27;;;13.80;99.90;;;14.08;100.00;102174.66;5113801;28;20480;-68
2022/01/01 02:20:13;;;;;;;65.90;26.10;;;13.80;99.90;;;14.08;100.00;102190.63;5114324;28;20051;-68
2022/01/01 02:22:47;;;;;;;58.92;25.67;;;13.80;99.90;;;14.02;100.00;102175.53;5113687;28;20485;-68
2022/01/01 02:25:17;;;;;;;61.10;27.50;;;13.80;99.90;;;14.00;100.00;102181.72;5113584;28;20143;-67
2022/01/01 02:27:46;;;;;;;67.05;28.05;;;13.80;99.90;;;13.97;100.00;102185.28;5113914;28;20130;-67
2022/01/01 02:30:17;;;;;;;72.53;31.90;;;13.70;99.90;;;13.94;100.00;102189.69;5095469;28;20484;-67
2022/01/01 02:32:45;;;;;;;57.03;31.08;;;13.70;99.90;;;13.94;100.00;102185.28;5113556;28;20550;-67
2022/01/01 02:35:18;;;;;;;59.33;29.83;;;13.70;99.90;;;14.01;100.00;102194.16;5113833;28;20135;-68
2022/01/01 02:37:46;;;;;;;61.05;29.33;;;13.70;99.90;;;12.29;100.00;101922.44;5113662;28;20347;-67
2022/01/01 02:40:15;;;;;;;64.05;29.73;;;13.70;99.90;;;13.49;100.00;102100.91;5113894;28;20122;-68
2022/01/01 02:42:45;;;;;;;60.63;32.13;;;13.80;99.90;;;14.11;100.00;102198.63;5113929;28;20043;-69
2022/01/01 02:45:15;;;;;;;65.30;28.83;;;13.80;99.90;;;14.03;100.00;102177.28;5113339;28;20450;-67
2022/01/01 02:47:44;;;;;;;63.03;27.92;;;13.80;99.90;;;14.02;100.00;102195.94;5113246;28;20052;-68
2022/01/01 02:50:15;;;;;;;65.20;28.98;;;13.80;99.90;;;14.03;100.00;102200.38;5113323;28;20044;-67
2022/01/01 02:52:43;;;;;;;54.70;26.98;;;13.80;99.90;;;14.00;100.00;102205.69;5113085;28;20067;-68
2022/01/01 02:55:12;;;;;;;59.00;26.15;;;13.70;99.90;;;14.06;100.00;102203.94;5113537;28;20048;-67
2022/01/01 02:57:40;;;;;;;53.25;24.80;;;13.70;99.90;;;13.44;100.00;102088.50;5094924;28;20434;-69
2022/01/01 03:00:10;;;;;;;54.40;24.55;;;13.70;99.90;;;14.13;100.00;102202.19;5112928;28;20120;-67
2022/01/01 03:02:39;;;;;;;51.58;23.63;;;13.80;99.90;;;14.10;100.00;102196.84;5113163;28;20043;-67
2022/01/01 03:05:09;;;;;;;48.60;21.70;;;13.80;99.90;;;14.12;100.00;102197.72;5113089;28;20047;-67
2022/01/01 03:07:39;;;;;;;50.13;21.85;;;13.80;99.90;;;14.18;100.00;102189.78;5112920;28;20442;-67
2022/01/01 03:10:09;;;;;;;43.15;20.27;;;13.90;99.90;;;14.07;100.00;102197.72;5112828;28;20122;-67
2022/01/01 03:12:37;;;;;;;49.97;21.92;;;13.80;99.90;;;14.07;100.00;102187.06;5112907;28;20405;-68
2022/01/01 03:15:07;;;;;;;42.78;19.48;;;13.80;99.90;;;13.99;100.00;102177.31;5112598;28;20040;-67
2022/01/01 03:17:35;;;;;;;45.70;19.58;;;13.80;99.90;;;14.07;100.00;102186.19;5112479;28;20039;-67
2022/01/01 03:20:06;;;;;;;39.30;19.83;;;13.80;99.90;;;14.02;100.00;102175.53;5112449;28;20516;-67
2022/01/01 03:22:34;;;;;;;49.17;19.98;;;13.80;99.90;;;14.05;100.00;102172.88;5094414;28;20119;-68
2022/01/01 03:25:05;;;;;;;48.75;19.75;;;13.80;99.90;;;13.95;100.00;102165.78;5112289;28;20039;-68
2022/01/01 03:27:33;;;;;;;46.83;20.63;;;13.80;99.90;;;13.95;100.00;102170.19;5113003;28;20427;-68
2022/01/01 03:30:02;;;;;;;43.20;19.52;;;13.70;99.90;;;13.98;100.00;102186.16;5112393;28;20078;-67
2022/01/01 03:32:30;;;;;;;41.45;20.98;;;13.70;99.90;;;13.98;100.00;102178.19;5112505;28;20078;-67
2022/01/01 03:34:59;;;;;;;42.10;19.73;;;13.70;99.90;;;14.00;100.00;102174.66;5093921;28;20093;-68
2022/01/01 03:37:27;;;;;;;42.38;20.83;;;13.70;99.90;;;14.00;100.00;102177.31;5112259;28;20077;-67
2022/01/01 03:39:55;;;;;;;36.88;19.73;;;13.70;99.90;;;14.06;100.00;102181.75;5112276;28;20104;-67
2022/01/01 03:42:25;;;;;;;42.45;21.17;;;13.70;99.90;;;14.10;100.00;102178.22;5112215;28;20126;-68
2022/01/01 03:44:53;;;;;;;43.30;21.07;;;13.70;99.90;;;14.12;99.25;102173.78;5112519;28;20399;-68
2022/01/01 03:47:22;;;;;;;51.42;22.48;;;13.80;99.90;;;14.05;99.27;102182.66;5112167;28;20382;-67
2022/01/01 03:49:51;;;;;;;44.90;21.75;;;13.70;99.90;;;14.01;99.05;102164.91;5112183;28;20051;-67
2022/01/01 03:52:20;;;;;;;38.63;20.63;;;13.70;99.90;;;13.99;98.93;102172.88;5111883;28;20507;-67
2022/01/01 03:54:48;;;;;;;46.83;20.70;;;13.70;99.90;;;14.02;99.01;102174.63;5112405;28;20097;-67
2022/01/01 03:57:16;;;;;;;36.10;19.45;;;13.70;99.90;;;14.05;98.83;102177.34;5112074;28;20139;-67
2022/01/01 03:59:46;;;;;;;35.53;19.02;;;13.70;99.90;;;13.95;98.98;102186.16;5112634;28;20047;-69
2022/01/01 04:02:14;;;;;;;39.30;20.15;;;13.70;99.90;;;13.92;99.19;102186.13;5112256;28;20070;-67
2022/01/01 04:04:43;;;;;;;43.15;21.25;;;13.60;99.90;;;13.91;99.35;102195.00;5112179;28;20056;-67
2022/01/01 04:07:11;;;;;;;42.05;21.50;;;13.60;99.90;;;13.91;99.95;102195.91;5112083;28;20075;-67
2022/01/01 04:09:40;;;;;;;35.97;20.17;;;13.60;99.90;;;13.85;100.00;102195.00;5094525;28;20035;-67
2022/01/01 04:12:09;;;;;;;39.90;20.25;;;13.60;99.90;;;13.84;100.00;102187.91;5111967;28;20108;-67
2022/01/01 04:14:37;;;;;;;36.38;19.95;;;13.50;99.90;;;13.90;100.00;102187.94;5111825;28;20122;-68
2022/01/01 04:17:09;;;;;;;37.25;20.33;;;13.60;99.90;;;13.85;100.00;102171.06;5111813;28;20044;-67
2022/01/01 04:19:39;;;;;;;46.33;20.85;;;13.60;99.90;;;13.83;100.00;102178.13;5111819;28;20547;-67
2022/01/01 04:22:09;;;;;;;32.35;19.42;;;13.50;99.90;;;13.66;100.00;102177.19;5112115;28;20126;-67
2022/01/01 04:24:39;;;;;;;35.85;18.95;;;13.50;99.90;;;13.74;100.00;102180.78;5112041;28;20458;-68
2022/01/01 04:27:10;;;;;;;35.65;19.55;;;13.50;99.90;;;13.73;99.85;102184.31;5111890;28;20085;-67
2022/01/01 04:29:39;;;;;;;;;;;13.50;99.90;;;13.72;99.95;102190.53;5094145;28;20051;-67
2022/01/01 04:32:09;;;;;;;36.38;19.27;;;13.40;99.90;;;13.73;99.62;102201.16;5111879;28;19962;-67
2022/01/01 04:34:38;;;;;;;33.00;18.20;;;13.40;99.90;;;13.75;99.95;102198.50;5111680;28;20051;-68
2022/01/01 04:37:11;;;;;;;35.03;18.73;;;13.40;99.90;;;13.72;99.64;102202.06;5111641;28;20124;-67
2022/01/01 04:39:40;;;;;;;33.17;18.77;;;13.40;99.90;;;13.84;99.32;102206.53;5093363;28;20074;-67
2022/01/01 04:42:09;;;;;;;39.05;19.15;;;13.50;99.90;;;13.87;99.10;102218.06;5111510;28;20422;-68
2022/01/01 04:44:37;;;;;;;36.00;19.75;;;13.50;99.90;;;13.90;98.82;102218.06;5111466;28;20132;-67
2022/01/01 04:47:06;;;;;;;29.70;17.42;;;13.60;99.90;;;13.97;98.53;102208.34;5111380;28;20473;-67
2022/01/01 04:49:36;;;;;;;31.20;18.45;;;13.60;99.90;;;14.03;98.05;102206.56;5111975;28;20043;-68
2022/01/01 04:52:05;;;;;;;32.33;17.57;;;13.70;99.90;;;14.02;97.63;102203.91;5111634;28;20362;-67
2022/01/01 04:54:34;;;;;;;28.27;16.63;;;13.70;99.90;;;14.05;97.62;102204.81;5111327;28;20384;-67
2022/01/01 04:57:02;;;;;;;32.78;16.55;;;13.80;99.90;;;14.00;97.22;102192.38;5111333;28;20085;-67
2022/01/01 04:59:31;;;;;;;30.08;16.98;;;13.70;99.90;;;14.04;97.44;102191.50;5111627;28;20048;-67
2022/01/01 05:01:59;;;;;;;31.33;17.00;;;13.70;99.90;;;14.08;97.44;102187.97;5111949;28;20075;-67
2022/01/01 05:04:28;;;;;;;28.38;17.08;;;13.80;99.90;;;14.08;97.14;102186.19;5112003;28;20097;-67
2022/01/01 05:06:59;;;;;;;28.60;16.65;;;13.80;99.90;;;14.06;97.16;102195.06;5115391;28;20065;-67
2022/01/01 05:09:29;;;;;;;32.25;15.65;;;13.80;99.90;;;14.14;97.02;102186.22;5115424;28;20043;-67
2022/01/01 05:11:58;;;;;;;28.77;15.85;;;13.80;99.90;;;14.16;96.58;102186.22;5115107;28;20477;-67
2022/01/01 05:14:26;;;;;;;28.80;16.27;;;13.90;99.90;;;14.20;96.29;102172.94;5115261;28;20464;-67
2022/01/01 05:16:56;;;;;;;37.35;16.95;;;13.90;99.90;;;14.28;95.99;102176.53;5096881;28;20051;-69
2022/01/01 05:19:25;;;;;;;31.50;15.40;;;14.00;99.90;;;14.30;95.66;102176.53;5115499;28;20052;-67
2022/01/01 05:21:55;;;;;;;28.27;16.45;;;14.00;99.90;;;14.31;95.39;102186.28;5115003;28;20079;-67
2022/01/01 05:24:25;;;;;;;28.95;16.45;;;14.10;99.90;;;14.25;95.03;102143.63;5096885;28;20063;-67
2022/01/01 05:26:58;;;;;;;26.70;15.43;;;14.20;99.90;;;14.45;94.99;102169.44;5114868;28;20126;-67
2022/01/01 05:29:27;;;;;;;26.80;14.88;;;14.20;99.90;;;14.41;94.85;102172.09;5096698;28;20502;-68
2022/01/01 05:31:55;;;;;;;25.65;14.95;;;14.20;99.90;;;14.46;94.68;102164.97;5115020;28;20048;-67
2022/01/01 05:34:24;;;;;;;27.90;14.50;;;14.20;99.90;;;14.54;94.44;102157.03;5114928;28;20146;-68
2022/01/01 05:36:53;;;;;;;25.20;14.32;;;14.20;99.90;;;14.50;94.30;102155.25;5115638;28;20168;-67
2022/01/01 05:39:21;;;;;;;25.60;13.52;;;14.20;99.90;;;14.45;94.22;102166.78;5114782;28;20520;-67
2022/01/01 05:41:54;;;;;;;25.92;13.48;;;14.20;99.90;;;14.49;94.12;102167.66;5114546;28;20035;-67
2022/01/01 05:44:23;;;;;;;22.15;13.20;;;14.20;99.90;;;14.45;93.94;102165.88;5114566;28;20044;-67
2022/01/01 05:46:53;;;;;;;25.48;12.43;;;14.20;99.90;;;14.42;93.98;102181.84;5114516;28;20063;-67
2022/01/01 05:49:22;;;;;;;21.33;11.10;;;14.20;99.90;;;14.43;93.97;102176.53;5114337;28;20071;-67
2022/01/01 05:51:50;;;;;;;22.63;12.10;;;14.10;99.90;;;14.36;93.96;102180.06;5114667;28;20044;-67
2022/01/01 05:54:21;;;;;;;26.17;12.85;;;14.10;99.90;;;14.28;94.15;102181.84;5114352;28;20127;-67
2022/01/01 05:56:50;;;;;;;20.75;12.43;;;14.00;99.90;;;14.23;94.29;102188.00;5114182;28;20048;-67
2022/01/01 05:59:19;;;;;;;23.20;13.18;;;14.00;99.90;;;14.21;94.38;102189.75;5114492;28;20047;-67
2022/01/01 06:01:47;;;;;;;23.67;12.82;;;13.90;99.90;;;14.21;94.35;102185.34;5114053;28;20074;-67
2022/01/01 06:04:16;;;;;;;28.50;13.57;;;13.90;99.90;;;14.23;94.41;102188.00;5114269;28;20055;-67
2022/01/01 06:06:47;;;;;;;31.05;13.70;;;13.90;99.90;;;14.26;94.13;102188.00;5114010;28;20040;-67
2022/01/01 06:09:15;;;;;;;26.52;13.40;;;13.90;99.90;;;14.30;94.04;102188.03;5095770;28;20079;-67
2022/01/01 06:11:43;;;;;;;24.55;12.60;;;14.00;99.90;;;14.21;94.08;102184.44;5113873;28;20040;-67
2022/01/01 06:14:15;;;;;;;22.17;11.75;;;14.00;99.90;;;14.26;93.93;102196.00;5114079;28;20134;-67
2022/01/01 06:16:44;;;;;;;19.63;12.48;;;14.00;99.90;;;14.30;93.84;102189.84;5113450;28;20130;-67
2022/01/01 06:19:13;;;;;;;23.50;12.80;;;14.00;99.90;;;14.29;93.63;102188.03;5113851;28;20063;-67
2022/01/01 06:21:41;;;;;;;22.65;12.88;;;14.00;99.90;;;14.31;93.80;102180.94;5095607;28;20555;-67
2022/01/01 06:24:10;;;;;;;24.83;13.40;;;14.00;99.90;;;14.35;93.58;102180.97;5113960;28;20130;-67
2022/01/01 06:26:39;;;;;;;24.25;13.07;;;14.00;99.90;;;14.30;93.22;102185.38;5113658;28;20043;-67
2022/01/01 06:29:07;;;;;;;23.90;11.93;;;14.00;99.90;;;14.38;93.20;102198.72;5113660;28;20039;-67
2022/01/01 06:31:37;;;;;;;20.05;11.75;;;14.10;99.90;;;14.26;93.27;102196.00;5113595;28;20069;-67
2022/01/01 06:34:06;;;;;;;22.80;11.65;;;14.00;99.90;;;14.21;93.26;102188.00;5095365;28;20135;-68
2022/01/01 06:36:34;;;;;;;22.45;12.02;;;14.00;99.90;;;14.31;93.11;102186.28;5114123;28;20047;-67
2022/01/01 06:39:04;;;;;;;22.90;11.27;;;14.00;99.90;;;14.31;92.88;102189.81;5113951;28;20074;-67
2022/01/01 06:41:32;;;;;;;21.50;11.77;;;14.10;99.90;;;14.14;93.08;102167.59;5095260;28;20406;-67
2022/01/01 06:44:07;;;;;;;27.35;12.95;;;14.00;99.90;;;14.26;92.88;102188.91;5113921;28;20388;-69
2022/01/01 06:46:37;;;;;;;18.70;11.52;;;14.00;99.90;;;14.31;93.23;102187.16;5113292;28;20038;-67
2022/01/01 06:49:05;;;;;;;24.40;11.80;;;14.00;99.90;;;14.25;93.14;102194.22;5113150;28;20101;-67
2022/01/01 06:51:34;;;;;;;22.30;11.90;;;14.00;99.90;;;14.17;93.25;102188.88;5113592;28;20046;-67
2022/01/01 06:54:02;;;;;;;23.05;11.52;;;14.00;99.90;;;14.14;93.42;102185.31;5113141;28;20102;-69
2022/01/01 06:56:30;;;;;;;27.60;12.52;;;13.90;99.90;;;14.04;94.01;102180.84;5113183;28;20387;-67
2022/01/01 06:58:59;;;;;;;18.83;12.38;;;13.90;99.90;;;13.84;94.19;102156.00;5094694;28;20065;-67
2022/01/01 07:01:27;;;;;;;21.25;12.32;;;13.70;99.90;;;13.91;94.60;102163.09;5095156;28;20728;-66
2022/01/01 07:03:57;;;;;;;24.48;12.75;;;13.70;99.90;;;13.99;94.68;102179.97;5113511;28;20098;-67
2022/01/01 07:06:26;;;;;;;25.48;13.38;;;13.70;99.90;;;13.95;94.44;102170.19;5095227;28;20331;-67
2022/01/01 07:08:55;;;;;;;22.23;13.48;;;13.80;99.90;;;13.98;95.03;102171.09;5112969;28;20062;-67
2022/01/01 07:11:24;;;;;;;21.20;13.00;;;13.80;99.90;;;14.00;94.70;102160.44;5112964;28;20167;-68
2022/01/01 07:13:52;;;;;;;21.23;12.25;;;13.80;99.90;;;14.06;94.36;102187.97;5113202;28;20039;-67
2022/01/01 07:16:21;;;;;;;23.92;13.57;;;13.90;99.90;;;14.09;94.55;102195.09;5112816;28;20067;-67
2022/01/01 07:18:49;;;;;;;27.80;13.05;;;14.00;99.90;;;14.04;94.68;102202.16;5112561;28;20554;-67
2022/01/01 07:21:19;;;;;;;22.73;12.82;;;13.90;99.90;;;13.95;94.61;102191.47;5112815;28;20051;-67
2022/01/01 07:23:48;;;;;;;20.80;11.47;;;13.80;99.90;;;14.08;94.68;102201.28;5112469;28;20131;-69
2022/01/01 07:26:17;;;;;;;18.20;11.77;;;13.90;99.90;;;13.47;94.54;102084.06;5112637;28;20040;-68
2022/01/01 07:28:45;;;;;;;20.55;11.68;;;14.00;99.90;;;14.19;94.41;102207.50;5111672;28;20237;-68
2022/01/01 07:31:14;;;;;;;27.13;12.85;;;14.00;99.90;;;14.26;93.80;102207.53;5112642;28;20055;-68
2022/01/01 07:33:42;;;;;;;19.90;12.13;;;14.00;99.90;;;14.33;93.63;102205.78;5112306;28;20105;-68
2022/01/01 07:36:11;;;;;;;21.63;12.07;;;14.10;99.90;;;14.30;93.54;102203.16;5112241;28;20055;-68
2022/01/01 07:38:41;;;;;;;24.95;12.73;;;14.10;99.90;;;14.34;93.13;102216.44;5112455;28;20146;-68
2022/01/01 07:41:09;;;;;;;21.83;13.02;;;14.10;99.90;;;14.33;93.06;102212.00;5112228;28;20443;-68
2022/01/01 07:43:38;;;;;;;22.30;12.50;;;14.10;99.90;;;14.37;92.96;102212.91;5093968;28;20166;-68
2022/01/01 07:46:06;;;;;;;23.58;12.20;;;14.20;99.90;;;14.37;92.77;102215.56;5112352;28;20055;-68
2022/01/01 07:48:35;;;;;;;23.27;13.05;;;14.10;99.90;;;14.33;93.05;102216.44;5111992;28;20081;-67
2022/01/01 07:51:04;;;;;;;20.90;12.65;;;14.10;99.90;;;14.34;92.80;102200.47;5112070;28;20047;-67
2022/01/01 07:53:32;;;;;;;23.08;12.77;;;14.10;99.90;;;14.35;92.84;102196.94;5112258;28;20446;-68
2022/01/01 07:56:02;;;;;;;21.08;12.88;;;14.10;99.90;;;14.28;92.88;102197.81;5112079;28;20044;-68
2022/01/01 07:58:32;;;;;;;20.02;13.07;;;14.10;99.90;;;14.22;93.26;102208.41;5112666;28;20044;-68
2022/01/01 08:01:00;;;;;;;20.05;13.18;;;14.10;99.90;;;13.62;93.40;102101.84;5112102;28;20044;-67
2022/01/01 08:03:29;;;;;;;26.02;13.43;;;14.00;99.90;;;14.13;93.76;102216.34;5111757;28;20055;-68
2022/01/01 08:05:57;;;;;;;24.70;14.43;;;13.90;99.90;;;14.09;93.99;102216.38;5112396;28;20048;-67
2022/01/01 08:08:26;;;;;;;21.38;14.93;;;13.90;99.90;;;14.04;93.93;102224.31;5111864;28;20071;-67
2022/01/01 08:10:54;;;;;;;20.17;14.48;;;13.80;99.90;;;13.83;94.20;102191.44;5112114;28;20531;-68
2022/01/01 08:13:25;;;;;;;24.45;15.57;;;13.70;99.90;;;14.02;94.38;102222.53;5112317;28;20118;-67
2022/01/01 08:15:56;;;;;;;26.05;17.02;;;13.80;99.90;;;13.12;94.11;102055.59;5112283;28;20048;-67
2022/01/01 08:18:25;;;;;;;27.23;16.30;;;13.70;99.90;;;14.02;94.51;102217.22;5094177;28;20047;-67
2022/01/01 08:20:53;;;;;;;26.42;16.92;;;13.70;99.90;;;14.01;94.26;102228.75;5111842;28;20075;-67
2022/01/01 08:23:22;;;;;;;24.88;16.75;;;13.80;99.90;;;14.04;94.33;102220.78;5112404;28;20136;-67
2022/01/01 08:25:50;;;;;;;25.55;16.52;;;13.80;99.90;;;13.95;94.31;102223.41;5111885;28;20115;-67
2022/01/01 08:28:19;;;;;;;28.50;18.50;;;13.70;99.90;;;13.98;94.34;102212.75;5111887;28;20433;-67
2022/01/01 08:30:49;;;;;;;26.42;16.70;;;13.70;99.90;;;13.98;94.27;102212.75;5111929;28;20039;-67
2022/01/01 08:33:17;;;;;;;26.17;16.25;;;13.80;99.90;;;14.04;93.80;102204.81;5111904;28;20054;-67
2022/01/01 08:35:46;;;;;;;28.35;18.65;;;13.80;99.90;;;13.95;94.07;102207.44;5093496;28;20047;-69
2022/01/01 08:38:15;;;;;;;32.30;19.58;;;13.70;99.90;;;13.95;94.47;102212.75;5112274;28;20440;-67
2022/01/01 08:40:43;;;;;;;31.38;20.77;;;13.70;99.90;;;13.96;94.63;102209.22;5115945;28;20093;-68
2022/01/01 08:43:13;;;;;;;34.05;20.02;;;13.70;99.90;;;14.00;94.71;102197.69;5115921;28;20471;-67
2022/01/01 08:45:42;;;;;;;30.90;19.02;;;13.70;99.90;;;13.94;94.66;102195.00;5115710;28;20465;-67
2022/01/01 08:48:12;;;;;;;32.00;21.38;;;13.70;99.90;;;13.84;94.87;102194.09;5097122;28;20067;-67
2022/01/01 08:50:40;;;;;;;34.00;22.15;;;13.70;99.90;;;13.77;95.02;102187.00;5115531;28;20035;-67
2022/01/01 08:53:08;;;;;;;37.15;23.25;;;13.50;99.90;;;13.75;94.89;102187.84;5115417;28;20481;-68
2022/01/01 08:55:37;;;;;;;38.47;24.42;;;13.60;99.90;;;13.67;95.54;102195.81;5116034;28;20039;-68
2022/01/01 08:58:05;;;;;;;40.40;27.05;;;13.40;99.90;;;13.52;96.10;102187.78;5115526;28;20497;-67
2022/01/01 09:00:53;;;;;;;40.90;28.52;;;13.30;99.90;;;13.50;96.44;102179.78;5115681;28;20043;-67
2022/01/01 09:03:23;;;;;;;46.92;29.60;;;13.30;99.90;;;13.51;96.67;102173.59;5115230;28;20489;-68
2022/01/01 09:05:52;;;;;;;50.10;30.95;;;13.30;99.90;;;13.56;97.03;102168.28;5115574;28;20067;-69
2022/01/01 09:08:39;;;;;;;45.95;27.80;;;13.30;99.90;;;13.58;96.79;102179.81;5115091;28;20142;-67
2022/01/01 09:11:08;;;;;;;36.88;23.33;;;13.30;99.90;;;13.57;96.40;102170.94;5115107;28;20504;-68
2022/01/01 09:13:41;;;;;;;38.47;23.65;;;13.40;99.90;;;13.47;96.31;102166.47;5114875;28;20122;-67
2022/01/01 09:16:14;;;;;;;53.25;30.30;;;13.30;99.90;;;13.46;96.38;102156.72;5115553;28;20047;-67
2022/01/01 09:18:47;;;;;;;74.72;37.45;;;13.30;99.90;;;13.25;96.87;102169.91;5114820;28;20079;-72
2022/01/01 09:21:17;;;;;;;82.75;44.10;;;13.20;99.90;;;13.10;98.18;102148.59;5096635;28;20051;-70
2022/01/01 09:23:46;;;;;;;95.97;48.78;;;13.00;99.90;;;13.04;98.96;102147.66;5114723;28;20059;-69
2022/01/01 09:26:14;;;;;;;100.25;50.55;;;12.90;99.90;;;13.01;99.60;102135.19;5096303;28;20108;-69
2022/01/01 09:28:43;;;;;;;106.60;51.72;;;12.80;99.90;;;13.07;99.74;102137.94;5096248;28;20047;-69
2022/01/01 09:31:11;;;;;;;95.82;48.80;;;12.90;99.90;;;12.96;100.00;102126.31;5114643;28;20051;-69
2022/01/01 09:33:40;;;;;;;91.60;48.78;;;12.90;99.90;;;12.95;100.00;102135.16;5114859;28;20051;-69
2022/01/01 09:36:14;;;;;;;85.65;45.47;;;12.80;99.90;;;12.92;100.00;102119.22;5114750;28;20135;-69
2022/01/01 09:38:43;;;;;;;79.78;42.95;;;12.90;99.90;;;13.11;100.00;102122.88;5114823;28;20062;-69
2022/01/01 09:41:14;;;;;;;72.47;40.92;;;13.00;99.90;;;13.05;100.00;102133.47;5096280;28;20126;-68
2022/01/01 09:43:44;;;;;;;72.38;40.63;;;12.90;99.90;;;13.20;100.00;102146.88;5095994;28;20052;-69
2022/01/01 09:46:15;;;;;;;74.82;42.28;;;13.00;99.90;;;12.96;100.00;102130.75;5114513;28;20070;-69
2022/01/01 09:48:56;;;;;;;73.68;41.95;;;13.00;99.90;;;13.31;100.00;102148.69;5096126;28;20048;-68
2022/01/01 09:51:26;;;;;;;70.15;41.00;;;13.10;99.90;;;12.53;100.00;102004.81;5113322;28;20035;-69
2022/01/01 09:53:55;;;;;;;75.05;42.78;;;13.20;99.90;;;13.27;100.00;102140.69;5114303;28;20047;-69
2022/01/01 09:56:23;;;;;;;70.35;40.97;;;13.20;99.90;;;13.27;100.00;102127.41;5114240;28;20038;-74
2022/01/01 09:58:51;;;;;;;71.68;41.80;;;13.10;99.90;;;13.31;100.00;102132.75;5114196;28;20067;-74
2022/01/01 10:01:22;;;;;;;75.70;42.70;;;13.20;99.90;;;13.38;100.00;102118.59;5113930;28;20075;-83
2022/01/01 10:03:52;;;;;;;71.93;41.90;;;13.20;99.90;;;13.62;100.00;102128.44;5113922;28;20050;-78
2022/01/01 10:06:22;;;;;;;66.63;39.92;;;13.40;99.90;;;13.49;100.00;102130.16;5114232;28;20042;-77
2022/01/01 10:08:59;;;;;;;68.75;40.13;;;13.50;99.90;;;13.49;100.00;102089.41;5114112;28;20032;-70